createdAt,value
2023-04-09T00:01:24.200Z,15.93
2023-04-09T00:03:51.326Z,13.47
2023-04-09T00:06:18.386Z,13.00
2023-04-09T00:08:45.258Z,12.50
2023-04-09T00:11:12.128Z,11.87
2023-04-09T00:13:39.903Z,12.33
2023-04-09T00:16:08.714Z,11.57
2023-04-09T00:18:36.234Z,13.50
2023-04-09T00:21:03.324Z,11.37
2023-04-09T00:23:30.667Z,11.70
2023-04-09T00:25:57.679Z,11.20
2023-04-09T00:28:24.874Z,10.80
2023-04-09T00:30:51.762Z,11.40
2023-04-09T00:33:18.717Z,10.07
2023-04-09T00:35:45.967Z,11.27
2023-04-09T00:38:12.888Z,11.07
2023-04-09T00:40:39.787Z,8.70
2023-04-09T00:43:06.736Z,10.53
2023-04-09T00:45:33.695Z,9.67
2023-04-09T00:48:00.975Z,10.50
2023-04-09T00:50:27.984Z,11.13
2023-04-09T00:52:55.707Z,10.10
2023-04-09T00:55:22.967Z,8.60
2023-04-09T00:57:49.908Z,10.80
2023-04-09T01:00:16.923Z,11.33
2023-04-09T01:02:44.516Z,11.70
2023-04-09T01:05:12.892Z,10.70
2023-04-09T01:08:11.864Z,9.70
2023-04-09T01:10:53.546Z,9.33
2023-04-09T01:13:28.352Z,9.00
2023-04-09T01:15:59.486Z,10.20
2023-04-09T01:18:36.157Z,10.60
2023-04-09T01:21:16.410Z,10.83
2023-04-09T01:24:42.707Z,10.10
2023-04-09T01:27:10.136Z,10.27
2023-04-09T01:29:46.716Z,11.93
2023-04-09T01:32:16.789Z,9.43
2023-04-09T01:34:47.228Z,12.10
2023-04-09T01:37:16.135Z,10.03
2023-04-09T01:39:43.308Z,9.40
2023-04-09T01:42:12.267Z,12.73
2023-04-09T01:44:41.610Z,10.37
2023-04-09T01:47:09.296Z,11.83
2023-04-09T01:49:37.813Z,9.20
2023-04-09T01:52:05.269Z,12.07
2023-04-09T01:54:32.990Z,9.07
2023-04-09T01:56:59.935Z,12.67
2023-04-09T01:59:26.962Z,11.33
2023-04-09T02:02:00.317Z,12.03
2023-04-09T02:04:33.174Z,10.80
2023-04-09T02:07:16.593Z,12.57
2023-04-09T02:09:47.910Z,10.77
2023-04-09T02:12:19.048Z,11.67
2023-04-09T02:14:52.320Z,10.13
2023-04-09T02:17:19.578Z,10.10
2023-04-09T02:19:48.000Z,10.00
2023-04-09T02:22:16.238Z,10.40
2023-04-09T02:24:43.210Z,12.77
2023-04-09T02:27:10.508Z,10.37
2023-04-09T02:29:38.521Z,10.60
2023-04-09T02:32:06.109Z,11.70
2023-04-09T02:34:33.044Z,10.17
2023-04-09T02:36:59.964Z,10.17
2023-04-09T02:39:27.336Z,10.23
2023-04-09T02:41:54.326Z,8.50
2023-04-09T02:44:21.324Z,12.07
2023-04-09T02:46:49.532Z,10.53
2023-04-09T02:49:16.743Z,10.53
2023-04-09T02:51:43.708Z,11.80
2023-04-09T02:54:10.604Z,8.90
2023-04-09T02:56:37.565Z,9.30
2023-04-09T02:59:04.565Z,9.63
2023-04-09T03:01:31.626Z,8.43
2023-04-09T03:03:58.724Z,10.57
2023-04-09T03:06:26.544Z,9.30
2023-04-09T03:08:53.702Z,9.30
2023-04-09T03:11:20.779Z,10.70
2023-04-09T03:13:47.670Z,10.30
2023-04-09T03:16:14.603Z,9.50
2023-04-09T03:18:41.565Z,9.30
2023-04-09T03:21:09.545Z,10.67
2023-04-09T03:23:37.179Z,10.37
2023-04-09T03:26:07.439Z,9.53
2023-04-09T03:28:34.373Z,11.07
2023-04-09T03:31:01.281Z,11.63
2023-04-09T03:33:28.274Z,9.37
2023-04-09T03:35:55.254Z,10.80
2023-04-09T03:38:22.216Z,8.80
2023-04-09T03:40:49.196Z,9.97
2023-04-09T03:43:16.171Z,15.03
2023-04-09T03:45:43.211Z,9.60
2023-04-09T03:48:10.156Z,8.70
2023-04-09T03:50:41.370Z,11.10
2023-04-09T03:53:08.468Z,11.53
2023-04-09T03:55:35.488Z,10.50
2023-04-09T03:58:02.380Z,10.90
2023-04-09T04:00:29.360Z,10.63
2023-04-09T04:02:56.619Z,11.10
2023-04-09T04:05:25.980Z,14.37
2023-04-09T04:07:52.989Z,18.67
2023-04-09T04:10:20.061Z,18.53
2023-04-09T04:12:47.137Z,14.20
2023-04-09T04:15:14.357Z,12.30
2023-04-09T04:17:41.320Z,11.70
2023-04-09T04:20:09.255Z,10.73
2023-04-09T04:22:36.307Z,12.40
2023-04-09T04:25:04.781Z,11.90
2023-04-09T04:27:31.903Z,12.90
2023-04-09T04:30:00.072Z,15.77
2023-04-09T04:32:27.370Z,14.37
2023-04-09T04:34:54.678Z,19.47
2023-04-09T04:37:22.150Z,15.50
2023-04-09T04:39:49.174Z,19.43
2023-04-09T04:42:16.644Z,19.97
2023-04-09T04:44:44.689Z,17.03
2023-04-09T04:47:11.793Z,17.47
2023-04-09T04:49:38.699Z,18.90
2023-04-09T04:52:06.650Z,16.40
2023-04-09T04:54:34.495Z,14.47
2023-04-09T04:57:01.637Z,15.37
2023-04-09T04:59:29.122Z,13.57
2023-04-09T05:01:56.157Z,14.53
2023-04-09T05:04:23.325Z,12.03
2023-04-09T05:06:50.424Z,10.50
2023-04-09T05:09:17.363Z,10.87
2023-04-09T05:11:44.268Z,12.00
2023-04-09T05:14:13.095Z,10.60
2023-04-09T05:16:40.315Z,10.53
2023-04-09T05:19:07.392Z,9.83
2023-04-09T05:21:34.395Z,12.40
2023-04-09T05:24:01.648Z,12.60
2023-04-09T05:26:28.778Z,11.80
2023-04-09T05:28:55.894Z,14.87
2023-04-09T05:31:22.997Z,12.67
2023-04-09T05:33:49.843Z,13.83
2023-04-09T05:36:18.350Z,16.43
2023-04-09T05:38:47.186Z,13.13
2023-04-09T05:41:14.608Z,12.43
2023-04-09T05:43:42.750Z,12.40
2023-04-09T05:46:09.695Z,12.23
2023-04-09T05:48:36.879Z,12.70
2023-04-09T05:51:03.972Z,12.83
2023-04-09T05:53:31.956Z,13.27
2023-04-09T05:55:59.029Z,13.77
2023-04-09T05:58:26.069Z,15.80
2023-04-09T06:00:52.968Z,12.20
2023-04-09T06:03:20.548Z,11.73
2023-04-09T06:05:48.397Z,14.00
2023-04-09T06:08:15.449Z,12.13
2023-04-09T06:10:42.409Z,15.50
2023-04-09T06:13:10.408Z,13.20
2023-04-09T06:15:39.304Z,14.90
2023-04-09T06:18:06.425Z,13.23
2023-04-09T06:20:33.699Z,14.13
2023-04-09T06:23:00.778Z,15.20
2023-04-09T06:25:27.654Z,15.83
2023-04-09T06:27:54.497Z,19.50
2023-04-09T06:30:21.863Z,15.73
2023-04-09T06:32:54.351Z,14.30
2023-04-09T06:35:22.273Z,15.40
2023-04-09T06:37:49.254Z,12.60
2023-04-09T06:40:16.444Z,12.23
2023-04-09T06:42:43.394Z,18.33
2023-04-09T06:45:10.641Z,15.73
2023-04-09T06:47:37.654Z,17.17
2023-04-09T06:50:05.313Z,17.83
2023-04-09T06:52:32.257Z,12.70
2023-04-09T06:54:59.167Z,33.97
2023-04-09T06:57:27.222Z,22.80
2023-04-09T06:59:54.102Z,26.77
2023-04-09T07:02:21.118Z,21.27
2023-04-09T07:04:48.166Z,17.30
2023-04-09T07:07:15.376Z,14.87
2023-04-09T07:09:43.011Z,12.13
2023-04-09T07:12:10.024Z,13.70
2023-04-09T07:14:36.954Z,11.97
2023-04-09T07:17:03.885Z,13.30
2023-04-09T07:19:31.075Z,14.10
2023-04-09T07:21:58.022Z,13.23
2023-04-09T07:24:25.015Z,12.50
2023-04-09T07:26:52.615Z,12.33
2023-04-09T07:29:22.319Z,12.23
2023-04-09T07:31:49.468Z,11.90
2023-04-09T07:34:16.908Z,17.43
2023-04-09T07:36:44.010Z,12.83
2023-04-09T07:39:11.003Z,18.40
2023-04-09T07:41:37.945Z,20.33
2023-04-09T07:44:06.290Z,11.80
2023-04-09T07:46:33.411Z,31.10
2023-04-09T07:49:00.564Z,33.87
2023-04-09T07:51:27.694Z,15.63
2023-04-09T07:53:54.647Z,9.93
2023-04-09T07:56:21.580Z,12.20
2023-04-09T07:58:49.382Z,10.57
2023-04-09T08:01:16.644Z,10.00
2023-04-09T08:03:43.811Z,11.17
2023-04-09T08:06:10.862Z,11.07
2023-04-09T08:08:38.113Z,10.30
2023-04-09T08:11:05.248Z,10.80
2023-04-09T08:13:32.123Z,11.27
2023-04-09T08:16:02.322Z,16.13
2023-04-09T08:18:29.847Z,24.60
2023-04-09T08:20:57.520Z,19.50
2023-04-09T08:23:24.530Z,11.60
2023-04-09T08:25:51.442Z,12.27
2023-04-09T08:28:18.463Z,11.50
2023-04-09T08:30:47.726Z,10.77
2023-04-09T08:33:15.021Z,18.93
2023-04-09T08:35:42.564Z,18.73
2023-04-09T08:38:09.614Z,19.90
2023-04-09T08:40:37.233Z,22.67
2023-04-09T08:43:09.006Z,17.80
2023-04-09T08:45:36.562Z,12.70
2023-04-09T08:48:04.127Z,8.07
2023-04-09T08:50:34.390Z,7.57
2023-04-09T08:53:05.707Z,7.47
2023-04-09T08:55:37.498Z,5.47
2023-04-09T08:58:07.505Z,5.40
2023-04-09T09:00:34.383Z,6.10
2023-04-09T09:03:04.351Z,6.40
2023-04-09T09:05:46.205Z,5.83
2023-04-09T09:08:24.084Z,6.07
2023-04-09T09:10:51.079Z,5.77
2023-04-09T09:13:26.343Z,6.80
2023-04-09T09:15:56.474Z,21.37
2023-04-09T09:18:43.872Z,20.80
2023-04-09T09:21:16.508Z,9.00
2023-04-09T09:23:44.442Z,7.00
2023-04-09T09:26:21.259Z,7.50
2023-04-09T09:28:49.491Z,7.70
2023-04-09T09:31:18.549Z,11.90
2023-04-09T09:33:47.096Z,13.20
2023-04-09T09:36:31.602Z,7.33
2023-04-09T09:39:03.624Z,7.60
2023-04-09T09:41:31.195Z,8.17
2023-04-09T09:43:58.214Z,7.10
2023-04-09T09:46:27.119Z,8.37
2023-04-09T09:48:54.737Z,6.60
2023-04-09T09:51:27.855Z,7.03
2023-04-09T09:54:00.064Z,7.73
2023-04-09T09:56:38.360Z,9.30
2023-04-09T09:59:32.357Z,7.80
2023-04-09T10:02:07.508Z,6.80
2023-04-09T10:04:36.117Z,22.60
2023-04-09T10:07:05.874Z,29.47
2023-04-09T10:09:35.892Z,9.00
2023-04-09T10:12:06.819Z,7.80
2023-04-09T10:14:35.930Z,10.37
2023-04-09T10:17:04.195Z,7.40
2023-04-09T10:19:32.477Z,7.07
2023-04-09T10:22:10.284Z,7.40
2023-04-09T10:24:37.403Z,7.70
2023-04-09T10:27:17.081Z,7.37
2023-04-09T10:29:49.917Z,6.93
2023-04-09T10:32:23.412Z,9.00
2023-04-09T10:34:50.952Z,7.87
2023-04-09T10:37:25.191Z,8.80
2023-04-09T10:39:53.456Z,13.10
2023-04-09T10:42:30.322Z,8.37
2023-04-09T10:45:07.862Z,7.30
2023-04-09T10:47:37.838Z,7.83
2023-04-09T10:50:30.866Z,6.83
2023-04-09T10:53:00.360Z,9.00
2023-04-09T10:55:37.959Z,8.57
2023-04-09T10:58:07.189Z,7.70
2023-04-09T11:00:43.925Z,7.50
2023-04-09T11:03:22.849Z,8.03
2023-04-09T11:05:56.712Z,31.70
2023-04-09T11:08:23.938Z,16.40
2023-04-09T11:10:52.350Z,9.80
2023-04-09T11:13:21.281Z,8.47
2023-04-09T11:15:48.231Z,8.00
2023-04-09T11:18:24.050Z,7.70
2023-04-09T11:20:58.383Z,8.33
2023-04-09T11:23:25.932Z,9.23
2023-04-09T11:25:54.097Z,7.27
2023-04-09T11:28:21.404Z,8.57
2023-04-09T11:30:51.522Z,8.30
2023-04-09T11:33:20.217Z,8.13
2023-04-09T11:35:48.664Z,8.17
2023-04-09T11:38:16.003Z,9.47
2023-04-09T11:40:51.491Z,7.57
2023-04-09T11:43:20.872Z,8.83
2023-04-09T11:45:48.790Z,9.30
2023-04-09T11:48:21.672Z,8.33
2023-04-09T11:50:49.093Z,8.67
2023-04-09T11:53:31.463Z,8.20
2023-04-09T11:55:58.577Z,8.80
2023-04-09T11:58:28.620Z,8.87
2023-04-09T12:00:58.451Z,8.50
2023-04-09T12:03:31.329Z,7.70
2023-04-09T12:06:03.298Z,8.07
2023-04-09T12:08:31.335Z,8.30
2023-04-09T12:11:12.649Z,10.17
2023-04-09T12:13:45.863Z,8.77
2023-04-09T12:16:13.846Z,8.80
2023-04-09T12:18:41.252Z,12.23
2023-04-09T12:21:08.181Z,9.53
2023-04-09T12:23:35.263Z,12.03
2023-04-09T12:26:02.543Z,8.67
2023-04-09T12:28:29.511Z,10.47
2023-04-09T12:30:56.767Z,9.90
2023-04-09T12:33:23.681Z,9.73
2023-04-09T12:35:51.104Z,9.00
2023-04-09T12:38:18.146Z,10.47
2023-04-09T12:40:45.338Z,8.90
2023-04-09T12:43:12.299Z,9.97
2023-04-09T12:45:39.189Z,9.27
2023-04-09T12:48:06.375Z,9.67
2023-04-09T12:50:33.383Z,10.67
2023-04-09T12:53:00.294Z,15.30
2023-04-09T12:55:27.885Z,10.70
2023-04-09T12:57:54.900Z,9.73
2023-04-09T13:00:21.821Z,10.37
2023-04-09T13:02:48.800Z,20.07
2023-04-09T13:05:15.734Z,42.57
2023-04-09T13:07:43.590Z,12.33
2023-04-09T13:10:11.094Z,9.63
2023-04-09T13:12:38.238Z,8.63
2023-04-09T13:15:05.916Z,9.53
2023-04-09T13:17:32.833Z,8.50
2023-04-09T13:19:59.791Z,8.73
2023-04-09T13:22:26.717Z,59.53
2023-04-09T13:24:53.567Z,74.00
2023-04-09T13:27:20.719Z,14.43
2023-04-09T13:29:47.611Z,10.60
2023-04-09T13:32:14.696Z,10.70
2023-04-09T13:34:41.743Z,8.87
2023-04-09T13:37:08.671Z,9.27
2023-04-09T13:39:35.680Z,8.73
2023-04-09T13:42:12.791Z,8.30
2023-04-09T13:44:42.409Z,8.70
2023-04-09T13:47:12.873Z,8.07
2023-04-09T13:49:41.224Z,8.20
2023-04-09T13:52:08.493Z,7.70
2023-04-09T13:54:36.096Z,13.33
2023-04-09T13:57:03.890Z,9.87
2023-04-09T13:59:30.919Z,9.23
2023-04-09T14:01:57.934Z,9.23
2023-04-09T14:04:24.949Z,7.47
2023-04-09T14:06:52.018Z,10.30
2023-04-09T14:09:19.017Z,22.40
2023-04-09T14:11:45.944Z,10.73
2023-04-09T14:14:12.892Z,8.90
2023-04-09T14:16:39.907Z,8.83
2023-04-09T14:19:07.337Z,8.83
2023-04-09T14:21:34.623Z,55.77
2023-04-09T14:24:01.815Z,40.77
2023-04-09T14:26:29.201Z,20.17
2023-04-09T14:28:56.312Z,34.17
2023-04-09T14:31:23.406Z,22.13
2023-04-09T14:33:50.360Z,9.13
2023-04-09T14:36:18.178Z,9.47
2023-04-09T14:38:45.917Z,9.03
2023-04-09T14:41:12.801Z,8.47
2023-04-09T14:43:39.716Z,8.57
2023-04-09T14:46:07.067Z,8.03
2023-04-09T14:48:34.265Z,7.97
2023-04-09T14:51:01.187Z,7.43
2023-04-09T14:53:28.214Z,7.90
2023-04-09T14:55:55.280Z,12.03
2023-04-09T14:58:22.314Z,22.90
2023-04-09T15:00:50.294Z,18.43
2023-04-09T15:03:17.705Z,9.73
2023-04-09T15:05:44.873Z,10.50
2023-04-09T15:08:12.953Z,8.83
2023-04-09T15:10:39.911Z,8.37
2023-04-09T15:13:06.970Z,8.73
2023-04-09T15:15:33.994Z,8.33
2023-04-09T15:18:05.810Z,26.63
2023-04-09T15:20:37.709Z,35.03
2023-04-09T15:23:04.765Z,13.80
2023-04-09T15:25:32.804Z,8.20
2023-04-09T15:27:59.759Z,7.70
2023-04-09T15:30:26.758Z,9.57
2023-04-09T15:32:54.174Z,9.07
2023-04-09T15:35:25.135Z,9.10
2023-04-09T15:37:52.486Z,8.50
2023-04-09T15:40:19.640Z,8.17
2023-04-09T15:42:46.563Z,9.20
2023-04-09T15:45:15.894Z,7.50
2023-04-09T15:47:44.812Z,9.07
2023-04-09T15:50:12.589Z,9.63
2023-04-09T15:52:39.702Z,10.47
2023-04-09T15:55:07.331Z,9.40
2023-04-09T15:57:34.362Z,9.00
2023-04-09T16:00:01.340Z,10.13
2023-04-09T16:02:28.532Z,9.97
2023-04-09T16:04:55.646Z,20.93
2023-04-09T16:07:22.613Z,21.80
2023-04-09T16:09:49.744Z,17.60
2023-04-09T16:12:16.700Z,17.90
2023-04-09T16:14:43.610Z,14.10
2023-04-09T16:17:10.833Z,32.67
2023-04-09T16:19:37.748Z,32.77
2023-04-09T16:22:04.618Z,16.90
2023-04-09T16:24:32.587Z,12.87
2023-04-09T16:26:59.653Z,14.80
2023-04-09T16:29:26.979Z,11.50
2023-04-09T16:31:54.093Z,10.57
2023-04-09T16:34:21.160Z,10.53
2023-04-09T16:36:48.101Z,10.90
2023-04-09T16:39:15.576Z,12.47
2023-04-09T16:41:44.208Z,10.50
2023-04-09T16:44:11.143Z,10.90
2023-04-09T16:46:38.071Z,18.97
2023-04-09T16:49:05.002Z,20.00
2023-04-09T16:51:32.011Z,16.17
2023-04-09T16:53:58.938Z,12.70
2023-04-09T16:56:26.016Z,12.73
2023-04-09T16:58:54.631Z,20.80
2023-04-09T17:01:21.816Z,14.70
2023-04-09T17:03:49.516Z,13.00
2023-04-09T17:06:16.455Z,12.73
2023-04-09T17:08:43.558Z,10.73
2023-04-09T17:11:15.837Z,11.73
2023-04-09T17:13:43.094Z,12.40
2023-04-09T17:16:11.739Z,11.30
2023-04-09T17:18:39.005Z,11.13
2023-04-09T17:21:07.027Z,11.97
2023-04-09T17:23:33.948Z,11.90
2023-04-09T17:26:01.665Z,13.83
2023-04-09T17:28:28.599Z,16.60
2023-04-09T17:30:55.555Z,17.60
2023-04-09T17:33:22.477Z,18.10
2023-04-09T17:35:49.519Z,13.70
2023-04-09T17:38:21.103Z,16.63
2023-04-09T17:40:48.407Z,17.07
2023-04-09T17:43:15.669Z,15.47
2023-04-09T17:45:42.619Z,16.97
2023-04-09T17:48:09.563Z,15.70
2023-04-09T17:50:39.589Z,17.57
2023-04-09T17:53:06.459Z,17.27
2023-04-09T17:55:33.616Z,16.77
2023-04-09T17:58:00.873Z,18.27
2023-04-09T18:00:27.948Z,21.07
2023-04-09T18:02:57.218Z,19.40
2023-04-09T18:05:24.914Z,18.70
2023-04-09T18:07:53.760Z,19.03
2023-04-09T18:10:22.283Z,18.07
2023-04-09T18:12:49.181Z,20.70
2023-04-09T18:15:18.603Z,20.10
2023-04-09T18:17:46.293Z,40.93
2023-04-09T18:20:15.279Z,26.27
2023-04-09T18:22:43.340Z,23.90
2023-04-09T18:25:10.576Z,27.17
2023-04-09T18:27:37.728Z,21.13
2023-04-09T18:30:05.414Z,23.27
2023-04-09T18:32:32.479Z,25.87
2023-04-09T18:34:59.470Z,21.97
2023-04-09T18:37:27.713Z,21.60
2023-04-09T18:39:54.643Z,19.73
2023-04-09T18:42:21.628Z,21.80
2023-04-09T18:44:48.801Z,22.70
2023-04-09T18:47:15.802Z,26.47
2023-04-09T18:49:42.705Z,25.33
2023-04-09T18:52:10.312Z,28.53
2023-04-09T18:54:38.516Z,29.20
2023-04-09T18:57:05.520Z,34.53
2023-04-09T18:59:36.010Z,28.93
2023-04-09T19:02:05.128Z,29.90
2023-04-09T19:04:39.747Z,28.60
2023-04-09T19:07:07.067Z,27.23
2023-04-09T19:09:42.199Z,27.10
2023-04-09T19:12:09.118Z,24.67
2023-04-09T19:14:36.795Z,18.60
2023-04-09T19:17:03.806Z,21.93
2023-04-09T19:19:30.733Z,19.93
2023-04-09T19:21:58.458Z,21.77
2023-04-09T19:24:25.837Z,19.83
2023-04-09T19:26:53.313Z,26.17
2023-04-09T19:29:20.372Z,24.97
2023-04-09T19:31:47.264Z,18.73
2023-04-09T19:34:14.872Z,26.80
2023-04-09T19:36:41.876Z,22.27
2023-04-09T19:39:11.089Z,23.63
2023-04-09T19:41:38.155Z,28.20
2023-04-09T19:44:07.409Z,23.03
2023-04-09T19:46:34.684Z,24.10
2023-04-09T19:49:01.693Z,21.63
2023-04-09T19:51:28.799Z,24.63
2023-04-09T19:53:56.289Z,23.10
2023-04-09T19:56:23.118Z,24.77
2023-04-09T19:58:50.068Z,22.97
2023-04-09T20:01:17.126Z,20.57
2023-04-09T20:03:44.218Z,21.60
2023-04-09T20:06:11.274Z,20.90
2023-04-09T20:08:38.452Z,23.23
2023-04-09T20:11:06.819Z,21.90
2023-04-09T20:13:34.175Z,20.73
2023-04-09T20:16:01.508Z,18.53
2023-04-09T20:18:28.868Z,18.73
2023-04-09T20:20:56.034Z,21.37
2023-04-09T20:23:22.989Z,23.40
2023-04-09T20:25:55.148Z,18.40
2023-04-09T20:28:22.187Z,23.73
2023-04-09T20:30:49.368Z,22.77
2023-04-09T20:33:17.901Z,19.57
2023-04-09T20:35:45.006Z,18.37
2023-04-09T20:38:12.028Z,17.83
2023-04-09T20:40:38.942Z,19.17
2023-04-09T20:43:06.457Z,18.20
2023-04-09T20:45:33.535Z,21.30
2023-04-09T20:48:01.123Z,23.73
2023-04-09T20:50:28.924Z,18.77
2023-04-09T20:52:56.013Z,18.73
2023-04-09T20:55:23.816Z,19.53
2023-04-09T20:57:51.823Z,17.93
2023-04-09T21:00:19.015Z,15.93
2023-04-09T21:02:46.367Z,21.07
2023-04-09T21:05:22.556Z,17.33
2023-04-09T21:07:52.402Z,16.80
2023-04-09T21:10:19.582Z,16.17
2023-04-09T21:12:46.695Z,17.03
2023-04-09T21:15:13.676Z,17.50
2023-04-09T21:17:40.896Z,19.13
2023-04-09T21:20:08.840Z,14.80
2023-04-09T21:22:35.955Z,14.80
2023-04-09T21:25:03.388Z,37.13
2023-04-09T21:27:30.455Z,23.60
2023-04-09T21:29:57.582Z,17.90
2023-04-09T21:32:25.093Z,17.63
2023-04-09T21:34:52.266Z,18.40
2023-04-09T21:37:19.205Z,22.07
2023-04-09T21:39:48.178Z,21.17
2023-04-09T21:42:15.074Z,20.13
2023-04-09T21:44:41.996Z,20.13
2023-04-09T21:47:09.039Z,22.80
2023-04-09T21:49:39.296Z,17.87
2023-04-09T21:52:14.905Z,21.27
2023-04-09T21:54:45.470Z,21.63
2023-04-09T21:57:12.379Z,21.50
2023-04-09T21:59:41.307Z,19.53
2023-04-09T22:02:09.382Z,19.23
2023-04-09T22:04:36.446Z,16.90
2023-04-09T22:07:04.150Z,21.20
2023-04-09T22:09:31.527Z,18.63
2023-04-09T22:11:59.421Z,17.87
2023-04-09T22:14:29.356Z,21.53
2023-04-09T22:16:58.516Z,19.80
2023-04-09T22:19:26.103Z,17.07
2023-04-09T22:21:53.507Z,23.70
2023-04-09T22:24:26.625Z,17.87
2023-04-09T22:26:53.990Z,19.20
2023-04-09T22:29:21.000Z,18.00
2023-04-09T22:31:47.874Z,17.60
2023-04-09T22:34:21.192Z,15.70
2023-04-09T22:36:49.161Z,16.90
2023-04-09T22:39:16.174Z,21.63
2023-04-09T22:41:43.525Z,16.17
2023-04-09T22:44:10.529Z,21.33
2023-04-09T22:46:37.550Z,24.30
2023-04-09T22:49:06.038Z,19.40
2023-04-09T22:51:36.581Z,14.77
2023-04-09T22:54:03.627Z,18.90
2023-04-09T22:56:32.138Z,15.77
2023-04-09T22:58:59.388Z,16.10
2023-04-09T23:01:26.989Z,29.03
2023-04-09T23:03:54.105Z,19.83
2023-04-09T23:06:22.283Z,20.03
2023-04-09T23:08:49.259Z,18.97
2023-04-09T23:11:16.266Z,18.60
2023-04-09T23:13:43.161Z,19.67
2023-04-09T23:16:10.753Z,18.33
2023-04-09T23:18:37.973Z,16.80
2023-04-09T23:21:09.138Z,17.40
2023-04-09T23:23:37.073Z,15.53
2023-04-09T23:26:04.954Z,17.93
2023-04-09T23:28:32.251Z,15.07
2023-04-09T23:30:59.244Z,19.37
2023-04-09T23:33:26.272Z,17.37
2023-04-09T23:35:53.244Z,15.40
2023-04-09T23:38:20.165Z,19.60
2023-04-09T23:40:48.782Z,21.50
2023-04-09T23:43:16.027Z,18.70
2023-04-09T23:45:44.460Z,15.97
2023-04-09T23:48:12.456Z,19.00
2023-04-09T23:50:41.072Z,19.27
2023-04-09T23:53:09.009Z,18.73
2023-04-09T23:55:40.694Z,17.80
2023-04-09T23:58:08.457Z,16.17
